Wetterdaten: Samstag, 09.04.2011
Datum Zeit Temp. A. Feuchte A. Luftdruck Regen Wind Richtung Richtung Sonnenschein UV Solar Windben
09.04.2011 00:00 10,6 C 79 % 1022,5 hPa 0,0 mm 3,2 km/h (1 Bft) NW 315 0 min 0 UV-I 0 W/m 16,1 km/h (3 Bft)
09.04.2011 00:10 10,6 C 78 % 1022,4 hPa 0,0 mm 6,4 km/h (2 Bft) W-NW 292 0 min 0 UV-I 0 W/m 19,3 km/h (3 Bft)
09.04.2011 00:20 10,3 C 78 % 1022,5 hPa 0,0 mm 4,8 km/h (1 Bft) W-NW 292 0 min 0 UV-I 0 W/m 19,3 km/h (3 Bft)
09.04.2011 00:30 10,2 C 79 % 1022,6 hPa 0,0 mm 4,8 km/h (1 Bft) W-NW 292 0 min 0 UV-I 0 W/m 16,1 km/h (3 Bft)
09.04.2011 00:40 10,1 C 79 % 1022,7 hPa 0,0 mm 4,8 km/h (1 Bft) W-NW 292 0 min 0 UV-I 0 W/m 19,3 km/h (3 Bft)
09.04.2011 00:50 9,8 C 79 % 1022,5 hPa 0,0 mm 3,2 km/h (1 Bft) W-NW 292 0 min 0 UV-I 0 W/m 17,7 km/h (3 Bft)
09.04.2011 01:00 9,6 C 81 % 1022,5 hPa 0,0 mm 1,6 km/h (1 Bft) W-NW 292 0 min 0 UV-I 0 W/m 6,4 km/h (2 Bft)
09.04.2011 01:10 9,5 C 81 % 1022,4 hPa 0,0 mm 3,2 km/h (1 Bft) NW 315 0 min 0 UV-I 0 W/m 9,7 km/h (2 Bft)
09.04.2011 01:20 9,4 C 80 % 1022,6 hPa 0,0 mm 4,8 km/h (1 Bft) W-NW 292 0 min 0 UV-I 0 W/m 19,3 km/h (3 Bft)
09.04.2011 01:30 9,3 C 78 % 1022,6 hPa 0,0 mm 4,8 km/h (1 Bft) NW 315 0 min 0 UV-I 0 W/m 16,1 km/h (3 Bft)
09.04.2011 01:40 9,2 C 78 % 1022,6 hPa 0,0 mm 4,8 km/h (1 Bft) W-NW 292 0 min 0 UV-I 0 W/m 14,5 km/h (3 Bft)
09.04.2011 01:50 8,9 C 79 % 1022,6 hPa 0,0 mm 1,6 km/h (1 Bft) W-NW 292 0 min 0 UV-I 0 W/m 8,0 km/h (2 Bft)
09.04.2011 02:00 8,7 C 81 % 1022,7 hPa 0,0 mm 1,6 km/h (1 Bft) W 270 0 min 0 UV-I 0 W/m 8,0 km/h (2 Bft)
09.04.2011 02:10 8,4 C 81 % 1022,6 hPa 0,0 mm 1,6 km/h (1 Bft) W-NW 292 0 min 0 UV-I 0 W/m 8,0 km/h (2 Bft)
09.04.2011 02:20 8,3 C 81 % 1022,8 hPa 0,0 mm 3,2 km/h (1 Bft) W-NW 292 0 min 0 UV-I 0 W/m 8,0 km/h (2 Bft)
09.04.2011 02:30 8,2 C 81 % 1022,4 hPa 0,0 mm 3,2 km/h (1 Bft) W-NW 292 0 min 0 UV-I 0 W/m 14,5 km/h (3 Bft)
09.04.2011 02:40 8,1 C 82 % 1022,4 hPa 0,0 mm 4,8 km/h (1 Bft) W-NW 292 0 min 0 UV-I 0 W/m 19,3 km/h (3 Bft)
09.04.2011 02:50 7,9 C 82 % 1022,6 hPa 0,0 mm 3,2 km/h (1 Bft) W-NW 292 0 min 0 UV-I 0 W/m 9,7 km/h (2 Bft)
09.04.2011 03:00 7,8 C 82 % 1022,8 hPa 0,0 mm 3,2 km/h (1 Bft) W 270 0 min 0 UV-I 0 W/m 11,3 km/h (2 Bft)
09.04.2011 03:10 7,7 C 82 % 1022,8 hPa 0,0 mm 1,6 km/h (1 Bft) W-NW 292 0 min 0 UV-I 0 W/m 8,0 km/h (2 Bft)
09.04.2011 03:20 7,6 C 83 % 1022,6 hPa 0,0 mm 1,6 km/h (1 Bft) W-NW 292 0 min 0 UV-I 0 W/m 8,0 km/h (2 Bft)
09.04.2011 03:30 7,4 C 83 % 1022,7 hPa 0,0 mm 1,6 km/h (1 Bft) W-NW 292 0 min 0 UV-I 0 W/m 8,0 km/h (2 Bft)
09.04.2011 03:40 7,4 C 83 % 1022,7 hPa 0,0 mm 1,6 km/h (1 Bft) W-NW 292 0 min 0 UV-I 0 W/m 9,7 km/h (2 Bft)
09.04.2011 03:50 7,3 C 83 % 1022,7 hPa 0,0 mm 3,2 km/h (1 Bft) W-NW 292 0 min 0 UV-I 0 W/m 11,3 km/h (2 Bft)
09.04.2011 04:00 7,2 C 84 % 1022,7 hPa 0,0 mm 1,6 km/h (1 Bft) W 270 0 min 0 UV-I 0 W/m 8,0 km/h (2 Bft)
09.04.2011 04:10 7,1 C 84 % 1022,7 hPa 0,0 mm 3,2 km/h (1 Bft) W-NW 292 0 min 0 UV-I 0 W/m 8,0 km/h (2 Bft)
09.04.2011 04:20 7,1 C 84 % 1022,9 hPa 0,0 mm 1,6 km/h (1 Bft) W 270 0 min 0 UV-I 0 W/m 6,4 km/h (2 Bft)
09.04.2011 04:30 6,9 C 84 % 1022,7 hPa 0,0 mm 1,6 km/h (1 Bft) W-NW 292 0 min 0 UV-I 0 W/m 8,0 km/h (2 Bft)
09.04.2011 04:40 6,9 C 85 % 1022,6 hPa 0,0 mm 1,6 km/h (1 Bft) W-NW 292 0 min 0 UV-I 0 W/m 6,4 km/h (2 Bft)
09.04.2011 04:50 6,7 C 85 % 1022,7 hPa 0,0 mm 1,6 km/h (1 Bft) W 270 0 min 0 UV-I 0 W/m 8,0 km/h (2 Bft)
09.04.2011 05:00 6,6 C 86 % 1022,8 hPa 0,0 mm 0,0 km/h (0 Bft) W 270 0 min 0 UV-I 0 W/m 3,2 km/h (1 Bft)
09.04.2011 05:10 6,4 C 87 % 1022,7 hPa 0,0 mm 1,6 km/h (1 Bft) W 270 0 min 0 UV-I 0 W/m 8,0 km/h (2 Bft)
09.04.2011 05:20 6,4 C 87 % 1022,8 hPa 0,0 mm 0,0 km/h (0 Bft) W 270 0 min 0 UV-I 0 W/m 4,8 km/h (1 Bft)
09.04.2011 05:30 6,3 C 87 % 1022,8 hPa 0,0 mm 1,6 km/h (1 Bft) W 270 0 min 0 UV-I 0 W/m 9,7 km/h (2 Bft)
09.04.2011 05:40 6,3 C 87 % 1023,0 hPa 0,0 mm 1,6 km/h (1 Bft) W-NW 292 0 min 0 UV-I 0 W/m 4,8 km/h (1 Bft)
09.04.2011 05:50 6,2 C 87 % 1023,0 hPa 0,0 mm 0,0 km/h (0 Bft) W-NW 292 0 min 0 UV-I 0 W/m 3,2 km/h (1 Bft)
09.04.2011 06:00 6,1 C 88 % 1023,0 hPa 0,0 mm 1,6 km/h (1 Bft) W-NW 292 0 min 0 UV-I 0 W/m 6,4 km/h (2 Bft)
09.04.2011 06:10 6,1 C 88 % 1023,1 hPa 0,0 mm 1,6 km/h (1 Bft) W 270 0 min 0 UV-I 0 W/m 6,4 km/h (2 Bft)
09.04.2011 06:20 6,0 C 88 % 1023,3 hPa 0,0 mm 0,0 km/h (0 Bft) W 270 0 min 0 UV-I 0 W/m 4,8 km/h (1 Bft)
09.04.2011 06:30 5,9 C 88 % 1023,4 hPa 0,0 mm 1,6 km/h (1 Bft) W 270 0 min 0 UV-I 0 W/m 8,0 km/h (2 Bft)
09.04.2011 06:40 5,9 C 88 % 1023,4 hPa 0,0 mm 1,6 km/h (1 Bft) W 270 0 min 0 UV-I 0 W/m 8,0 km/h (2 Bft)
09.04.2011 06:50 5,8 C 89 % 1023,4 hPa 0,0 mm 1,6 km/h (1 Bft) W 270 0 min 0 UV-I 5 W/m 4,8 km/h (1 Bft)
09.04.2011 07:00 5,8 C 89 % 1023,5 hPa 0,0 mm 1,6 km/h (1 Bft) W 270 0 min 0 UV-I 11 W/m 6,4 km/h (2 Bft)
09.04.2011 07:10 6,0 C 89 % 1023,5 hPa 0,0 mm 1,6 km/h (1 Bft) W 270 0 min 0 UV-I 18 W/m 8,0 km/h (2 Bft)
09.04.2011 07:20 6,1 C 89 % 1023,6 hPa 0,0 mm 1,6 km/h (1 Bft) W 270 0 min 0 UV-I 26 W/m 11,3 km/h (2 Bft)
09.04.2011 07:30 6,1 C 89 % 1023,5 hPa 0,0 mm 3,2 km/h (1 Bft) W 270 0 min 0 UV-I 35 W/m 9,7 km/h (2 Bft)
09.04.2011 07:40 6,2 C 89 % 1023,7 hPa 0,0 mm 4,8 km/h (1 Bft) W 270 0 min 0 UV-I 56 W/m 11,3 km/h (2 Bft)
09.04.2011 07:50 6,2 C 89 % 1023,6 hPa 0,0 mm 3,2 km/h (1 Bft) W-NW 292 0 min 0 UV-I 84 W/m 11,3 km/h (2 Bft)
09.04.2011 08:00 6,4 C 88 % 1023,5 hPa 0,0 mm 3,2 km/h (1 Bft) W-NW 292 0 min 0 UV-I 67 W/m 12,9 km/h (3 Bft)
09.04.2011 08:10 6,6 C 88 % 1023,8 hPa 0,0 mm 4,8 km/h (1 Bft) W-NW 292 0 min 0 UV-I 95 W/m 14,5 km/h (3 Bft)
09.04.2011 08:20 6,7 C 88 % 1023,9 hPa 0,0 mm 4,8 km/h (1 Bft) W 270 0 min 1 UV-I 100 W/m 16,1 km/h (3 Bft)
09.04.2011 08:30 6,7 C 87 % 1023,9 hPa 0,0 mm 3,2 km/h (1 Bft) W-NW 292 0 min 1 UV-I 109 W/m 12,9 km/h (3 Bft)
09.04.2011 08:40 6,8 C 87 % 1023,9 hPa 0,0 mm 3,2 km/h (1 Bft) W-NW 292 10 min 1 UV-I 202 W/m 14,5 km/h (3 Bft)
09.04.2011 08:50 6,9 C 87 % 1024,0 hPa 0,0 mm 3,2 km/h (1 Bft) W-NW 292 0 min 1 UV-I 98 W/m 16,1 km/h (3 Bft)
09.04.2011 09:00 7,0 C 86 % 1024,1 hPa 0,0 mm 3,2 km/h (1 Bft) W-NW 292 0 min 1 UV-I 132 W/m 16,1 km/h (3 Bft)
09.04.2011 09:10 7,0 C 85 % 1024,2 hPa 0,0 mm 4,8 km/h (1 Bft) W-NW 292 0 min 1 UV-I 169 W/m 17,7 km/h (3 Bft)
09.04.2011 09:20 7,2 C 84 % 1024,1 hPa 0,0 mm 4,8 km/h (1 Bft) W-NW 292 10 min 1 UV-I 264 W/m 16,1 km/h (3 Bft)
09.04.2011 09:30 7,3 C 83 % 1024,1 hPa 0,0 mm 4,8 km/h (1 Bft) W 270 0 min 1 UV-I 214 W/m 16,1 km/h (3 Bft)
09.04.2011 09:40 7,4 C 83 % 1024,1 hPa 0,0 mm 4,8 km/h (1 Bft) NW 315 10 min 1 UV-I 251 W/m 11,3 km/h (2 Bft)
09.04.2011 09:50 7,6 C 81 % 1024,2 hPa 0,0 mm 3,2 km/h (1 Bft) W 270 10 min 2 UV-I 464 W/m 14,5 km/h (3 Bft)
09.04.2011 10:00 8,1 C 80 % 1024,3 hPa 0,0 mm 6,4 km/h (2 Bft) W 270 10 min 2 UV-I 490 W/m 16,1 km/h (3 Bft)
09.04.2011 10:10 8,3 C 78 % 1024,2 hPa 0,0 mm 3,2 km/h (1 Bft) NW 315 10 min 2 UV-I 318 W/m 9,7 km/h (2 Bft)
09.04.2011 10:20 8,4 C 78 % 1024,2 hPa 0,0 mm 4,8 km/h (1 Bft) W-NW 292 10 min 3 UV-I 568 W/m 14,5 km/h (3 Bft)
09.04.2011 10:30 8,7 C 76 % 1024,4 hPa 0,0 mm 3,2 km/h (1 Bft) W-SW 247 10 min 3 UV-I 615 W/m 16,1 km/h (3 Bft)
09.04.2011 10:40 8,9 C 74 % 1024,3 hPa 0,0 mm 4,8 km/h (1 Bft) W 270 10 min 3 UV-I 621 W/m 11,3 km/h (2 Bft)
09.04.2011 10:50 9,3 C 75 % 1024,3 hPa 0,0 mm 3,2 km/h (1 Bft) W 270 10 min 3 UV-I 654 W/m 11,3 km/h (2 Bft)
09.04.2011 11:00 9,7 C 72 % 1024,2 hPa 0,0 mm 3,2 km/h (1 Bft) W 270 10 min 3 UV-I 693 W/m 11,3 km/h (2 Bft)
09.04.2011 11:10 9,8 C 71 % 1024,2 hPa 0,0 mm 3,2 km/h (1 Bft) W-NW 292 10 min 4 UV-I 645 W/m 11,3 km/h (2 Bft)
09.04.2011 11:20 10,2 C 69 % 1024,3 hPa 0,0 mm 3,2 km/h (1 Bft) W-NW 292 10 min 4 UV-I 684 W/m 17,7 km/h (3 Bft)
09.04.2011 11:30 10,7 C 68 % 1024,2 hPa 0,0 mm 4,8 km/h (1 Bft) W-NW 292 10 min 4 UV-I 679 W/m 12,9 km/h (3 Bft)
09.04.2011 11:40 10,8 C 67 % 1024,1 hPa 0,0 mm 4,8 km/h (1 Bft) W 270 10 min 4 UV-I 668 W/m 16,1 km/h (3 Bft)
09.04.2011 11:50 10,9 C 65 % 1024,1 hPa 0,0 mm 4,8 km/h (1 Bft) W-NW 292 10 min 4 UV-I 687 W/m 19,3 km/h (3 Bft)
09.04.2011 12:00 11,4 C 64 % 1024,1 hPa 0,0 mm 4,8 km/h (1 Bft) W 270 10 min 4 UV-I 696 W/m 16,1 km/h (3 Bft)
09.04.2011 12:10 11,7 C 64 % 1024,1 hPa 0,0 mm 4,8 km/h (1 Bft) W 270 10 min 5 UV-I 712 W/m 16,1 km/h (3 Bft)
09.04.2011 12:20 11,8 C 63 % 1024,1 hPa 0,0 mm 6,4 km/h (2 Bft) W 270 10 min 5 UV-I 735 W/m 19,3 km/h (3 Bft)
09.04.2011 12:30 12,1 C 60 % 1024,1 hPa 0,0 mm 4,8 km/h (1 Bft) W 270 10 min 5 UV-I 737 W/m 19,3 km/h (3 Bft)
09.04.2011 12:40 12,4 C 60 % 1024,0 hPa 0,0 mm 6,4 km/h (2 Bft) W 270 10 min 5 UV-I 745 W/m 16,1 km/h (3 Bft)
09.04.2011 12:50 12,6 C 59 % 1024,0 hPa 0,0 mm 4,8 km/h (1 Bft) NW 315 10 min 5 UV-I 759 W/m 16,1 km/h (3 Bft)
09.04.2011 13:00 13,0 C 57 % 1024,0 hPa 0,0 mm 4,8 km/h (1 Bft) W-NW 292 10 min 5 UV-I 766 W/m 16,1 km/h (3 Bft)
09.04.2011 13:10 12,9 C 58 % 1024,0 hPa 0,0 mm 6,4 km/h (2 Bft) W 270 10 min 5 UV-I 765 W/m 16,1 km/h (3 Bft)
09.04.2011 13:20 13,3 C 58 % 1023,9 hPa 0,0 mm 6,4 km/h (2 Bft) W 270 10 min 5 UV-I 772 W/m 19,3 km/h (3 Bft)
09.04.2011 13:30 13,7 C 55 % 1023,9 hPa 0,0 mm 4,8 km/h (1 Bft) W-NW 292 10 min 5 UV-I 777 W/m 14,5 km/h (3 Bft)
09.04.2011 13:40 13,8 C 54 % 1023,8 hPa 0,0 mm 6,4 km/h (2 Bft) W 270 10 min 5 UV-I 773 W/m 17,7 km/h (3 Bft)
09.04.2011 13:50 13,9 C 54 % 1023,8 hPa 0,0 mm 6,4 km/h (2 Bft) W 270 10 min 5 UV-I 779 W/m 17,7 km/h (3 Bft)
09.04.2011 14:00 14,4 C 53 % 1023,7 hPa 0,0 mm 6,4 km/h (2 Bft) W 270 10 min 5 UV-I 780 W/m 24,1 km/h (4 Bft)
09.04.2011 14:10 14,4 C 52 % 1023,7 hPa 0,0 mm 4,8 km/h (1 Bft) W 270 10 min 5 UV-I 779 W/m 16,1 km/h (3 Bft)
09.04.2011 14:20 14,7 C 50 % 1023,6 hPa 0,0 mm 4,8 km/h (1 Bft) W 270 10 min 5 UV-I 786 W/m 17,7 km/h (3 Bft)
09.04.2011 14:30 15,1 C 50 % 1023,6 hPa 0,0 mm 6,4 km/h (2 Bft) W 270 10 min 5 UV-I 830 W/m 17,7 km/h (3 Bft)
09.04.2011 14:40 15,1 C 51 % 1023,6 hPa 0,0 mm 3,2 km/h (1 Bft) W-NW 292 10 min 5 UV-I 768 W/m 17,7 km/h (3 Bft)
09.04.2011 14:50 15,3 C 48 % 1023,5 hPa 0,0 mm 4,8 km/h (1 Bft) W-NW 292 10 min 5 UV-I 805 W/m 16,1 km/h (3 Bft)
09.04.2011 15:00 15,5 C 48 % 1023,5 hPa 0,0 mm 3,2 km/h (1 Bft) W-NW 292 10 min 4 UV-I 745 W/m 24,1 km/h (4 Bft)
09.04.2011 15:10 15,8 C 47 % 1023,5 hPa 0,0 mm 6,4 km/h (2 Bft) N-NO 22 10 min 4 UV-I 729 W/m 16,1 km/h (3 Bft)
09.04.2011 15:20 15,8 C 47 % 1023,4 hPa 0,0 mm 6,4 km/h (2 Bft) W-NW 292 10 min 4 UV-I 691 W/m 17,7 km/h (3 Bft)
09.04.2011 15:30 16,0 C 46 % 1023,4 hPa 0,0 mm 8,0 km/h (2 Bft) W 270 10 min 4 UV-I 700 W/m 19,3 km/h (3 Bft)
09.04.2011 15:40 16,1 C 47 % 1023,3 hPa 0,0 mm 3,2 km/h (1 Bft) W-NW 292 10 min 4 UV-I 673 W/m 16,1 km/h (3 Bft)
09.04.2011 15:50 16,4 C 47 % 1023,2 hPa 0,0 mm 3,2 km/h (1 Bft) N-NO 22 10 min 3 UV-I 661 W/m 9,7 km/h (2 Bft)
09.04.2011 16:00 16,4 C 45 % 1023,1 hPa 0,0 mm 5,9 km/h (2 Bft) W-NW 294 10 min 3 UV-I 621 W/m 17,7 km/h (3 Bft)
09.04.2011 16:10 16,4 C 46 % 1023,0 hPa 0,0 mm 6,4 km/h (2 Bft) W-SW 247 10 min 3 UV-I 612 W/m 20,9 km/h (4 Bft)
09.04.2011 16:20 16,9 C 44 % 1022,9 hPa 0,0 mm 3,2 km/h (1 Bft) W 270 10 min 3 UV-I 592 W/m 14,5 km/h (3 Bft)
09.04.2011 16:30 16,6 C 44 % 1022,9 hPa 0,0 mm 4,8 km/h (1 Bft) W-NW 292 10 min 3 UV-I 526 W/m 16,1 km/h (3 Bft)
09.04.2011 16:40 16,7 C 43 % 1022,9 hPa 0,0 mm 4,8 km/h (1 Bft) W 270 10 min 2 UV-I 566 W/m 19,3 km/h (3 Bft)
09.04.2011 16:50 16,8 C 43 % 1022,8 hPa 0,0 mm 4,8 km/h (1 Bft) W-NW 292 10 min 2 UV-I 522 W/m 16,1 km/h (3 Bft)
09.04.2011 17:00 16,6 C 44 % 1022,8 hPa 0,0 mm 4,8 km/h (1 Bft) W 270 10 min 2 UV-I 499 W/m 17,7 km/h (3 Bft)
09.04.2011 17:10 16,9 C 43 % 1022,7 hPa 0,0 mm 4,8 km/h (1 Bft) W-NW 292 10 min 2 UV-I 485 W/m 16,1 km/h (3 Bft)
09.04.2011 17:20 16,9 C 43 % 1022,6 hPa 0,0 mm 4,8 km/h (1 Bft) NW 315 10 min 2 UV-I 450 W/m 16,1 km/h (3 Bft)
09.04.2011 17:30 16,8 C 41 % 1022,7 hPa 0,0 mm 4,8 km/h (1 Bft) W-NW 292 10 min 2 UV-I 385 W/m 20,9 km/h (4 Bft)
09.04.2011 17:40 16,7 C 41 % 1022,4 hPa 0,0 mm 4,8 km/h (1 Bft) W-NW 292 10 min 1 UV-I 403 W/m 14,5 km/h (3 Bft)
09.04.2011 17:50 16,8 C 40 % 1022,4 hPa 0,0 mm 6,4 km/h (2 Bft) W-NW 292 10 min 1 UV-I 369 W/m 16,1 km/h (3 Bft)
09.04.2011 18:00 16,5 C 40 % 1022,4 hPa 0,0 mm 3,2 km/h (1 Bft) NW 315 10 min 1 UV-I 332 W/m 12,9 km/h (3 Bft)
09.04.2011 18:10 16,7 C 41 % 1022,5 hPa 0,0 mm 4,8 km/h (1 Bft) W-NW 292 10 min 1 UV-I 308 W/m 11,3 km/h (2 Bft)
09.04.2011 18:20 16,6 C 40 % 1022,5 hPa 0,0 mm 4,8 km/h (1 Bft) N-NW 337 10 min 1 UV-I 278 W/m 16,1 km/h (3 Bft)
09.04.2011 18:30 16,4 C 41 % 1022,6 hPa 0,0 mm 3,2 km/h (1 Bft) NW 315 10 min 1 UV-I 251 W/m 12,9 km/h (3 Bft)
09.04.2011 18:40 16,5 C 40 % 1022,5 hPa 0,0 mm 3,2 km/h (1 Bft) W-NW 292 10 min 1 UV-I 216 W/m 9,7 km/h (2 Bft)
09.04.2011 18:50 16,4 C 41 % 1022,4 hPa 0,0 mm 1,6 km/h (1 Bft) W-NW 292 10 min 1 UV-I 193 W/m 9,7 km/h (2 Bft)
09.04.2011 19:00 16,2 C 41 % 1022,4 hPa 0,0 mm 4,8 km/h (1 Bft) W-NW 292 10 min 1 UV-I 160 W/m 14,5 km/h (3 Bft)
09.04.2011 19:10 16,0 C 42 % 1022,4 hPa 0,0 mm 1,6 km/h (1 Bft) W-NW 292 10 min 0 UV-I 135 W/m 9,7 km/h (2 Bft)
09.04.2011 19:20 15,8 C 42 % 1022,5 hPa 0,0 mm 3,2 km/h (1 Bft) W-NW 292 10 min 0 UV-I 72 W/m 9,7 km/h (2 Bft)
09.04.2011 19:30 15,4 C 43 % 1022,5 hPa 0,0 mm 3,2 km/h (1 Bft) NW 315 0 min 0 UV-I 40 W/m 9,7 km/h (2 Bft)
09.04.2011 19:40 15,2 C 45 % 1022,5 hPa 0,0 mm 1,6 km/h (1 Bft) NW 315 0 min 0 UV-I 33 W/m 9,7 km/h (2 Bft)
09.04.2011 19:50 15,0 C 45 % 1022,4 hPa 0,0 mm 1,6 km/h (1 Bft) W-NW 292 10 min 0 UV-I 25 W/m 6,4 km/h (2 Bft)
09.04.2011 20:00 14,6 C 47 % 1022,5 hPa 0,0 mm 0,0 km/h (0 Bft) W-NW 292 10 min 0 UV-I 19 W/m 3,2 km/h (1 Bft)
09.04.2011 20:10 14,2 C 48 % 1022,5 hPa 0,0 mm 0,0 km/h (0 Bft) W-NW 292 0 min 0 UV-I 12 W/m 4,8 km/h (1 Bft)
09.04.2011 20:20 13,9 C 49 % 1022,5 hPa 0,0 mm 0,0 km/h (0 Bft) W-NW 292 0 min 0 UV-I 0 W/m 1,6 km/h (1 Bft)
09.04.2011 20:30 13,3 C 54 % 1022,7 hPa 0,0 mm 0,0 km/h (0 Bft) W-NW 292 0 min 0 UV-I 0 W/m 1,6 km/h (1 Bft)
09.04.2011 20:40 12,6 C 55 % 1022,8 hPa 0,0 mm 0,0 km/h (0 Bft) W-NW 292 0 min 0 UV-I 0 W/m 3,2 km/h (1 Bft)
09.04.2011 20:50 12,5 C 57 % 1022,8 hPa 0,0 mm 0,0 km/h (0 Bft) W-NW 292 0 min 0 UV-I 0 W/m 1,6 km/h (1 Bft)
09.04.2011 21:00 12,2 C 59 % 1022,9 hPa 0,0 mm 0,0 km/h (0 Bft) W-NW 292 0 min 0 UV-I 0 W/m 1,6 km/h (1 Bft)
09.04.2011 21:10 11,8 C 61 % 1023,0 hPa 0,0 mm 0,0 km/h (0 Bft) N 0 0 min 0 UV-I 0 W/m 0,0 km/h (0 Bft)
09.04.2011 21:20 11,5 C 63 % 1023,2 hPa 0,0 mm 0,0 km/h (0 Bft) N 0 0 min 0 UV-I 0 W/m 0,0 km/h (0 Bft)
09.04.2011 21:30 11,3 C 63 % 1023,2 hPa 0,0 mm 0,0 km/h (0 Bft) W-NW 292 0 min 0 UV-I 0 W/m 3,2 km/h (1 Bft)
09.04.2011 21:40 11,2 C 63 % 1023,2 hPa 0,0 mm 0,0 km/h (0 Bft) N 0 0 min 0 UV-I 0 W/m 0,0 km/h (0 Bft)
09.04.2011 21:50 10,9 C 65 % 1023,3 hPa 0,0 mm 0,0 km/h (0 Bft) N 0 0 min 0 UV-I 0 W/m 0,0 km/h (0 Bft)
09.04.2011 22:00 10,6 C 66 % 1023,1 hPa 0,0 mm 0,0 km/h (0 Bft) N 0 0 min 0 UV-I 0 W/m 0,0 km/h (0 Bft)
09.04.2011 22:10 10,3 C 67 % 1023,1 hPa 0,0 mm 0,0 km/h (0 Bft) N 0 0 min 0 UV-I 0 W/m 0,0 km/h (0 Bft)
09.04.2011 22:20 10,1 C 67 % 1023,1 hPa 0,0 mm 0,0 km/h (0 Bft) N 0 0 min 0 UV-I 0 W/m 0,0 km/h (0 Bft)
09.04.2011 22:30 9,8 C 69 % 1023,1 hPa 0,0 mm 0,0 km/h (0 Bft) N 0 0 min 0 UV-I 0 W/m 0,0 km/h (0 Bft)
09.04.2011 22:40 9,7 C 69 % 1023,2 hPa 0,0 mm 0,0 km/h (0 Bft) N 0 0 min 0 UV-I 0 W/m 0,0 km/h (0 Bft)
09.04.2011 22:50 9,5 C 70 % 1023,3 hPa 0,0 mm 0,0 km/h (0 Bft) N 0 0 min 0 UV-I 0 W/m 0,0 km/h (0 Bft)
09.04.2011 23:00 9,2 C 71 % 1023,2 hPa 0,0 mm 0,0 km/h (0 Bft) N 0 0 min 0 UV-I 0 W/m 0,0 km/h (0 Bft)
09.04.2011 23:10 9,0 C 72 % 1023,1 hPa 0,0 mm 0,0 km/h (0 Bft) N 0 0 min 0 UV-I 0 W/m 0,0 km/h (0 Bft)
09.04.2011 23:20 8,9 C 72 % 1023,0 hPa 0,0 mm 0,0 km/h (0 Bft) N 0 0 min 0 UV-I 0 W/m 0,0 km/h (0 Bft)
09.04.2011 23:30 8,7 C 73 % 1023,1 hPa 0,0 mm 0,0 km/h (0 Bft) N 0 0 min 0 UV-I 0 W/m 0,0 km/h (0 Bft)
09.04.2011 23:40 8,6 C 74 % 1023,0 hPa 0,0 mm 0,0 km/h (0 Bft) N 0 0 min 0 UV-I 0 W/m 0,0 km/h (0 Bft)
09.04.2011 23:50 8,4 C 74 % 1023,0 hPa 0,0 mm 0,0 km/h (0 Bft) N 0 0 min 0 UV-I 0 W/m 0,0 km/h (0 Bft)
_ Min-Zeit 06:50 17:50 00:10 - 05:00 - - - - - 21:10
Minimum _ 5,8 C 40 % 1022,4 hPa - 0,0 km/h (0 Bft) - - - - - 0,0 km/h (0 Bft)
_ Max-Zeit 16:20 06:50 10:30 00:00 15:30 - - 08:40 13:00 14:30 14:00
Maximum _ 17,1 C 89 % 1024,4 hPa 0,0 mm 8,0 km/h
W (2 Bft)
- - 10 min 5 UV-I 830 W/m 24,1 km/h
SW (4 Bft)
Durchschnitt _ 10,8 C 68 % 1023,2 hPa #0,0 mm 3,1 km/h (1 Bft) W-NW - #10:30 h 3 UV-I 442 W/m 11,1 km/h (2 Bft)